Aviation Digital Data Service (ADDS)

Output produced by METARs form (0311 UTC 30 August 2016)
found at http://aviationweather.gov/adds/metars/
 
KGON 300238Z 3003/3024 03005KT P6SM SKC 
     FM301400 VRB05KT P6SM FEW250 
     FM301600 20008KT P6SM FEW050 SCT250